Time;durP1;ratioP1;P1;durP2;ratioP2;P2;SDS_P1;SDS_P2;PMS_P1;PMS_P2;Temp;Humidity;BMP_temperature;BMP_pressure;BME280_temperature;BME280_humidity;BME280_pressure;Samples;Min_cycle;Max_cycle;Signal;HPM_P1;HPM_P2
2022/10/13 00:01:09;;;;;;;29.97;27.00;;;9.80;99.90;;;;;;5038621;28;20629;-85
2022/10/13 00:03:37;;;;;;;36.30;29.60;;;10.20;99.90;;;;;;5037612;28;21240;-85
2022/10/13 00:06:06;;;;;;;35.40;30.03;;;9.80;99.90;;;;;;5038508;28;20653;-85
2022/10/13 00:08:35;;;;;;;33.43;27.47;;;10.30;99.90;;;;;;5039472;28;20631;-85
2022/10/13 00:11:01;;;;;;;28.73;26.00;;;9.80;99.90;;;;;;5041288;28;20645;-86
2022/10/13 00:13:29;;;;;;;30.63;26.63;;;10.00;99.90;;;;;;5039625;28;20672;-85
2022/10/13 00:15:55;;;;;;;30.20;27.00;;;9.90;99.90;;;;;;5038909;28;20668;-86
2022/10/13 00:18:22;;;;;;;32.03;28.70;;;9.80;99.90;;;;;;5039304;28;20615;-86
2022/10/13 00:20:50;;;;;;;37.03;29.10;;;9.90;99.90;;;;;;5040466;28;20625;-86
2022/10/13 00:23:17;;;;;;;33.03;28.17;;;10.10;99.90;;;;;;5039552;28;20645;-87
2022/10/13 00:25:48;;;;;;;31.07;26.53;;;9.90;99.90;;;;;;5038602;28;20660;-86
2022/10/13 00:28:16;;;;;;;29.37;26.17;;;10.00;99.90;;;;;;5039716;28;20684;-86
2022/10/13 00:30:43;;;;;;;33.17;27.70;;;10.40;99.90;;;;;;5040137;28;21425;-86
2022/10/13 00:33:11;;;;;;;36.20;29.80;;;9.90;99.90;;;;;;5039608;28;20664;-87
2022/10/13 00:35:41;;;;;;;29.00;25.90;;;9.80;99.90;;;;;;5038145;28;20665;-86
2022/10/13 00:38:08;;;;;;;33.37;27.50;;;9.90;99.90;;;;;;5039448;28;20626;-86
2022/10/13 00:40:44;;;;;;;35.50;25.87;;;9.80;99.90;;;;;;5040003;28;20625;-86
2022/10/13 00:43:17;;;;;;;28.93;26.13;;;9.90;99.90;;;;;;5039763;28;20661;-86
2022/10/13 00:45:44;;;;;;;27.90;25.20;;;10.00;99.90;;;;;;5040273;28;21209;-86
2022/10/13 00:48:11;;;;;;;26.50;24.10;;;10.00;99.90;;;;;;5038682;28;20653;-87
2022/10/13 00:50:41;;;;;;;28.07;25.13;;;9.90;99.90;;;;;;5039277;28;21152;-86
2022/10/13 00:53:09;;;;;;;27.57;24.70;;;9.80;99.90;;;;;;5038517;28;20642;-86
2022/10/13 00:55:39;;;;;;;27.30;24.50;;;10.40;99.90;;;;;;5037583;28;20665;-86
2022/10/13 00:58:14;;;;;;;27.80;24.67;;;10.00;99.90;;;;;;5039322;28;21050;-88
2022/10/13 01:00:42;;;;;;;26.63;23.73;;;10.10;99.90;;;;;;5039346;28;20637;-87
2022/10/13 01:03:10;;;;;;;28.03;25.23;;;9.90;99.90;;;;;;5039654;28;20653;-86
2022/10/13 01:05:38;;;;;;;27.80;23.03;;;9.90;99.90;;;;;;5038025;28;20736;-86
2022/10/13 01:08:06;;;;;;;27.27;23.97;;;10.00;99.90;;;;;;5039635;28;20661;-85
2022/10/13 01:10:44;;;;;;;27.37;24.50;;;10.20;99.90;;;;;;5038778;28;20644;-86
2022/10/13 01:13:21;;;;;;;25.73;23.07;;;9.90;99.90;;;;;;5040746;28;20626;-87
2022/10/13 01:15:55;;;;;;;25.67;23.27;;;9.90;99.90;;;;;;5040530;28;21015;-86
2022/10/13 01:18:28;;;;;;;25.70;23.07;;;10.20;99.90;;;;;;5042771;28;20621;-86
2022/10/13 01:21:08;;;;;;;25.97;23.60;;;9.70;99.90;;;;;;5040321;28;20648;-87
2022/10/13 01:24:07;;;;;;;27.63;22.67;;;10.10;99.90;;;;;;5042421;28;20636;-86
2022/10/13 01:27:03;;;;;;;28.17;22.40;;;10.50;99.90;;;;;;5037170;28;20657;-86
2022/10/13 01:29:53;;;;;;;28.20;23.57;;;10.60;99.90;;;;;;5037726;28;20653;-86
2022/10/13 01:32:29;;;;;;;24.77;22.17;;;10.60;99.90;;;;;;5038410;28;21184;-86
2022/10/13 01:35:05;;;;;;;25.70;23.13;;;10.50;99.90;;;;;;5037508;28;21128;-87
2022/10/13 01:37:38;;;;;;;24.77;22.43;;;10.30;99.90;;;;;;5038689;28;20625;-87
2022/10/13 01:40:15;;;;;;;24.60;22.10;;;10.30;99.90;;;;;;5037676;28;21373;-86
2022/10/13 01:42:49;;;;;;;25.27;22.73;;;10.50;99.90;;;;;;5037134;28;20637;-86
2022/10/13 01:45:20;;;;;;;24.03;21.53;;;10.60;99.90;;;;;;5036495;28;21105;-86
2022/10/13 01:47:50;;;;;;;25.50;23.07;;;10.50;99.90;;;;;;5036892;28;20661;-86
2022/10/13 01:50:18;;;;;;;22.47;20.30;;;10.90;99.90;;;;;;5037692;28;20626;-86
2022/10/13 01:52:46;;;;;;;24.03;20.47;;;11.00;99.90;;;;;;5038128;28;20634;-86
2022/10/13 01:55:13;;;;;;;22.27;20.20;;;10.70;99.90;;;;;;5036967;28;20626;-86
2022/10/13 01:57:42;;;;;;;23.90;21.40;;;10.70;99.90;;;;;;5037920;28;20645;-86
2022/10/13 02:00:11;;;;;;;23.30;20.97;;;10.80;99.90;;;;;;5037211;28;21239;-86
2022/10/13 02:02:47;;;;;;;22.77;20.77;;;11.30;99.90;;;;;;5036844;28;20626;-87
2022/10/13 02:05:24;;;;;;;23.40;21.23;;;10.80;99.90;;;;;;5035430;28;20719;-86
2022/10/13 02:07:59;;;;;;;24.00;21.53;;;11.30;99.90;;;;;;5037373;28;20650;-86
2022/10/13 02:10:31;;;;;;;26.10;22.23;;;10.80;99.90;;;;;;5036880;28;21196;-86
2022/10/13 02:13:01;;;;;;;23.57;21.17;;;11.30;99.90;;;;;;5034221;28;20634;-86
2022/10/13 02:15:33;;;;;;;24.90;20.70;;;11.40;99.90;;;;;;5035637;28;20670;-86
2022/10/13 02:18:02;;;;;;;22.63;20.23;;;11.00;99.90;;;;;;5035753;28;20633;-86
2022/10/13 02:20:31;;;;;;;22.80;20.70;;;11.10;99.90;;;;;;5036717;28;20643;-86
2022/10/13 02:23:02;;;;;;;23.07;20.87;;;11.50;99.90;;;;;;5036086;28;20637;-86
2022/10/13 02:25:30;;;;;;;22.40;20.07;;;11.30;99.90;;;;;;5035589;28;20661;-86
2022/10/13 02:27:59;;;;;;;26.57;20.00;;;11.10;99.90;;;;;;5037905;28;21084;-86
2022/10/13 02:30:29;;;;;;;21.90;17.83;;;11.20;99.90;;;;;;5033553;28;20643;-86
2022/10/13 02:32:57;;;;;;;20.80;18.93;;;11.20;99.90;;;;;;5035895;28;20622;-86
2022/10/13 02:35:24;;;;;;;21.37;19.30;;;11.00;99.90;;;;;;5038407;28;20664;-86
2022/10/13 02:37:52;;;;;;;28.20;20.63;;;11.70;99.90;;;;;;5038844;28;20725;-87
2022/10/13 02:40:19;;;;;;;21.83;19.60;;;10.90;99.90;;;;;;5037398;28;20629;-86
2022/10/13 02:42:46;;;;;;;23.17;20.80;;;11.10;99.90;;;;;;5038928;28;20634;-86
2022/10/13 02:45:12;;;;;;;21.60;19.63;;;11.40;99.90;;;;;;5036872;28;20626;-87
2022/10/13 02:47:40;;;;;;;21.40;19.27;;;11.10;99.90;;;;;;5036825;28;21270;-86
2022/10/13 02:50:07;;;;;;;21.50;19.70;;;11.50;99.90;;;;;;5037492;28;20629;-86
2022/10/13 02:52:34;;;;;;;21.93;19.70;;;11.60;99.90;;;;;;5037468;28;20638;-86
2022/10/13 02:55:03;;;;;;;24.17;21.87;;;11.70;99.90;;;;;;5037501;28;20633;-86
2022/10/13 02:57:30;;;;;;;23.07;20.73;;;11.70;99.90;;;;;;5036071;28;20634;-86
2022/10/13 03:00:04;;;;;;;21.00;19.07;;;11.60;99.90;;;;;;5036936;28;20942;-86
2022/10/13 03:02:31;;;;;;;20.83;18.93;;;11.60;99.90;;;;;;5037734;28;21148;-86
2022/10/13 03:04:58;;;;;;;20.40;18.37;;;11.20;99.90;;;;;;5037028;28;20645;-86
2022/10/13 03:07:25;;;;;;;22.40;18.83;;;11.50;99.90;;;;;;5036421;28;20681;-86
2022/10/13 03:09:51;;;;;;;22.13;19.60;;;11.30;99.90;;;;;;5036643;28;20753;-86
2022/10/13 03:12:20;;;;;;;20.70;18.50;;;11.20;99.90;;;;;;5038832;28;20654;-86
2022/10/13 03:14:46;;;;;;;21.00;18.93;;;11.40;99.90;;;;;;5036846;28;22746;-86
2022/10/13 03:17:13;;;;;;;24.40;22.10;;;11.30;99.90;;;;;;5036763;28;20648;-87
2022/10/13 03:19:43;;;;;;;21.10;19.03;;;11.20;99.90;;;;;;5037773;28;20637;-84
2022/10/13 03:22:13;;;;;;;21.73;19.57;;;11.70;99.90;;;;;;5036313;28;20634;-86
2022/10/13 03:24:40;;;;;;;22.93;20.47;;;11.70;99.90;;;;;;5037232;28;21183;-85
2022/10/13 03:27:07;;;;;;;28.20;25.90;;;11.90;99.90;;;;;;5036952;28;21262;-86
2022/10/13 03:29:35;;;;;;;22.50;20.30;;;11.80;99.90;;;;;;5032069;28;20634;-86
2022/10/13 03:32:04;;;;;;;22.00;19.70;;;11.70;99.90;;;;;;5036622;28;20629;-86
2022/10/13 03:34:31;;;;;;;23.20;20.90;;;11.60;99.90;;;;;;5037492;28;20634;-86
2022/10/13 03:36:58;;;;;;;22.63;20.43;;;11.50;99.90;;;;;;5035695;28;20653;-86
2022/10/13 03:39:25;;;;;;;23.03;20.73;;;11.50;99.90;;;;;;5036017;28;20626;-86
2022/10/13 03:41:52;;;;;;;23.73;21.43;;;11.40;99.90;;;;;;5035195;28;20700;-86
2022/10/13 03:44:19;;;;;;;22.77;20.47;;;11.10;99.90;;;;;;5036645;28;20642;-86
2022/10/13 03:46:47;;;;;;;24.47;21.70;;;11.20;99.90;;;;;;5036720;28;21197;-87
2022/10/13 03:49:14;;;;;;;23.30;21.20;;;11.20;99.90;;;;;;5036703;28;20670;-87
2022/10/13 03:51:41;;;;;;;22.47;20.37;;;11.40;99.90;;;;;;5037397;28;20668;-86
2022/10/13 03:54:10;;;;;;;23.23;21.03;;;11.00;99.90;;;;;;5037270;28;20634;-86
2022/10/13 03:56:36;;;;;;;23.80;21.40;;;10.90;99.90;;;;;;5036585;28;21248;-87
2022/10/13 03:59:04;;;;;;;22.93;20.73;;;11.10;99.90;;;;;;5037449;28;20630;-87
2022/10/13 04:01:31;;;;;;;24.07;21.63;;;11.10;99.90;;;;;;5037654;28;20626;-87
2022/10/13 04:04:02;;;;;;;22.90;20.67;;;10.80;99.90;;;;;;5037823;28;20638;-87
2022/10/13 04:06:29;;;;;;;24.13;21.93;;;10.90;99.90;;;;;;5042417;28;20715;-87
2022/10/13 04:08:57;;;;;;;27.27;24.37;;;11.30;99.90;;;;;;5040252;28;20666;-86
2022/10/13 04:11:24;;;;;;;25.50;22.97;;;11.30;99.90;;;;;;5040071;28;20637;-86
2022/10/13 04:13:52;;;;;;;25.60;23.00;;;11.30;99.90;;;;;;5039164;28;21473;-86
2022/10/13 04:16:23;;;;;;;24.77;22.23;;;11.00;99.90;;;;;;5041473;28;20729;-87
2022/10/13 04:18:53;;;;;;;25.80;23.20;;;10.60;99.90;;;;;;5040723;28;20621;-86
2022/10/13 04:21:23;;;;;;;25.73;23.40;;;10.60;99.90;;;;;;5040502;28;21187;-86
2022/10/13 04:23:50;;;;;;;26.20;23.10;;;10.90;99.90;;;;;;5039006;28;20630;-87
2022/10/13 04:26:18;;;;;;;25.97;23.27;;;10.60;99.90;;;;;;5043366;28;20685;-87
2022/10/13 04:28:45;;;;;;;26.60;23.83;;;10.60;99.90;;;;;;5048831;28;21028;-87
2022/10/13 04:31:12;;;;;;;24.77;22.57;;;10.90;99.90;;;;;;5042264;28;21391;-87
2022/10/13 04:33:39;;;;;;;24.30;21.90;;;10.60;99.90;;;;;;5043201;28;20629;-87
2022/10/13 04:36:07;;;;;;;25.23;22.50;;;10.40;99.90;;;;;;5046858;28;20710;-86
2022/10/13 04:38:35;;;;;;;24.67;22.10;;;10.80;99.90;;;;;;5043802;28;20656;-86
2022/10/13 04:41:03;;;;;;;26.07;23.27;;;10.70;99.90;;;;;;5044016;28;20645;-86
2022/10/13 04:43:30;;;;;;;27.20;24.13;;;10.90;99.90;;;;;;5050638;28;20633;-86
2022/10/13 04:46:00;;;;;;;26.30;23.47;;;10.80;99.90;;;;;;5039029;28;20653;-86
2022/10/13 04:48:27;;;;;;;25.40;22.90;;;10.60;99.90;;;;;;5044545;28;20697;-86
2022/10/13 04:50:59;;;;;;;25.73;23.30;;;10.50;99.90;;;;;;5045053;28;20644;-85
2022/10/13 04:53:27;;;;;;;23.20;21.10;;;10.60;99.90;;;;;;5043213;28;20630;-86
2022/10/13 04:55:56;;;;;;;24.10;21.70;;;10.50;99.90;;;;;;5044417;28;20666;-86
2022/10/13 04:58:23;;;;;;;24.03;21.63;;;11.00;99.90;;;;;;5047166;28;20652;-86
2022/10/13 05:00:50;;;;;;;24.30;22.00;;;11.00;99.90;;;;;;5045159;28;20622;-86
2022/10/13 05:03:17;;;;;;;23.00;20.17;;;11.10;99.90;;;;;;5049636;28;21150;-86
2022/10/13 05:05:45;;;;;;;24.87;20.83;;;11.00;99.90;;;;;;5044383;28;21063;-85
2022/10/13 05:08:16;;;;;;;22.70;20.40;;;10.90;99.90;;;;;;5040547;28;20669;-84
2022/10/13 05:10:43;;;;;;;21.83;19.83;;;11.00;99.90;;;;;;5041057;28;20660;-85
2022/10/13 05:13:11;;;;;;;21.13;18.40;;;10.80;99.90;;;;;;5044262;28;20617;-86
2022/10/13 05:15:39;;;;;;;22.80;20.47;;;10.60;99.90;;;;;;5041601;28;21335;-86
2022/10/13 05:18:06;;;;;;;23.07;20.60;;;11.10;99.90;;;;;;5046149;28;20641;-86
2022/10/13 05:20:33;;;;;;;20.07;18.17;;;10.90;99.90;;;;;;5043567;28;20759;-86
2022/10/13 05:23:00;;;;;;;23.70;21.17;;;10.70;99.90;;;;;;5044411;28;21191;-85
2022/10/13 05:25:28;;;;;;;22.57;20.50;;;10.90;99.90;;;;;;5044564;28;21036;-86
2022/10/13 05:27:55;;;;;;;23.27;21.07;;;10.80;99.90;;;;;;5046792;28;20709;-85
2022/10/13 05:30:23;;;;;;;24.07;21.97;;;10.70;99.90;;;;;;5047466;28;20667;-86
2022/10/13 05:32:50;;;;;;;24.67;22.10;;;10.80;99.90;;;;;;5046684;28;20634;-86
2022/10/13 05:35:17;;;;;;;24.40;21.33;;;11.20;99.90;;;;;;5045494;28;20633;-86
2022/10/13 05:37:44;;;;;;;23.57;21.40;;;11.00;99.90;;;;;;5042570;28;20635;-85
2022/10/13 05:40:11;;;;;;;23.40;20.90;;;10.80;99.90;;;;;;5043906;28;20622;-87
2022/10/13 05:42:38;;;;;;;24.40;21.63;;;11.50;99.90;;;;;;5041856;28;20657;-86
2022/10/13 05:45:09;;;;;;;30.20;22.30;;;11.30;99.90;;;;;;5042880;28;20633;-86
2022/10/13 05:47:37;;;;;;;23.37;21.13;;;11.20;99.90;;;;;;5044143;28;20638;-86
2022/10/13 05:50:05;;;;;;;25.63;22.90;;;11.20;99.90;;;;;;5042078;28;20665;-86
2022/10/13 05:52:33;;;;;;;25.87;23.50;;;11.20;99.90;;;;;;5041581;28;20629;-86
2022/10/13 05:55:02;;;;;;;24.00;21.73;;;11.00;99.90;;;;;;5044253;28;20723;-85
2022/10/13 05:57:33;;;;;;;27.93;21.30;;;11.10;99.90;;;;;;5044973;28;20625;-85
2022/10/13 06:00:04;;;;;;;32.23;21.53;;;11.20;99.90;;;;;;5041438;28;20626;-87
2022/10/13 06:02:36;;;;;;;23.83;21.53;;;10.90;99.90;;;;;;5040925;28;20621;-84
2022/10/13 06:05:07;;;;;;;22.73;20.63;;;10.80;99.90;;;;;;5039692;28;20618;-84
2022/10/13 06:07:34;;;;;;;23.13;21.03;;;11.30;99.90;;;;;;5041843;28;20622;-85
2022/10/13 06:10:01;;;;;;;22.80;20.70;;;11.20;99.90;;;;;;5038559;28;20670;-84
2022/10/13 06:12:28;;;;;;;24.73;22.47;;;11.10;99.90;;;;;;5041859;28;21599;-84
2022/10/13 06:14:55;;;;;;;22.70;20.17;;;11.40;99.90;;;;;;5043076;28;20627;-85
2022/10/13 06:17:21;;;;;;;23.43;21.10;;;11.40;99.90;;;;;;5044600;28;20657;-84
2022/10/13 06:19:48;;;;;;;22.63;20.40;;;11.30;99.90;;;;;;5041184;28;20745;-85
2022/10/13 06:22:16;;;;;;;22.33;20.07;;;11.50;99.90;;;;;;5040796;28;20625;-85
2022/10/13 06:24:44;;;;;;;20.47;18.40;;;11.50;99.90;;;;;;5045363;28;20650;-85
2022/10/13 06:27:11;;;;;;;21.37;19.30;;;11.50;99.90;;;;;;5039206;28;20680;-84
2022/10/13 06:29:38;;;;;;;19.63;17.83;;;11.70;99.90;;;;;;5044248;28;20661;-86
2022/10/13 06:32:05;;;;;;;20.13;18.30;;;11.40;99.90;;;;;;5044558;28;20724;-85
2022/10/13 06:34:33;;;;;;;21.00;19.03;;;11.70;99.90;;;;;;5040759;28;20629;-84
2022/10/13 06:37:00;;;;;;;20.10;18.10;;;11.50;99.90;;;;;;5044096;28;20645;-85
2022/10/13 06:39:28;;;;;;;20.40;18.40;;;11.20;99.90;;;;;;5041340;28;20647;-85
2022/10/13 06:41:54;;;;;;;20.00;17.93;;;11.50;99.90;;;;;;5039974;28;20637;-85
2022/10/13 06:44:21;;;;;;;20.80;18.97;;;11.60;99.90;;;;;;5041624;28;20637;-85
2022/10/13 06:46:48;;;;;;;18.93;16.63;;;11.70;99.90;;;;;;5043004;28;20654;-85
2022/10/13 06:49:15;;;;;;;18.97;17.27;;;11.50;99.90;;;;;;5039986;28;20661;-86
2022/10/13 06:51:42;;;;;;;27.93;17.70;;;12.00;99.90;;;;;;5044236;28;20634;-85
2022/10/13 06:54:08;;;;;;;19.57;17.67;;;11.80;99.90;;;;;;5042657;28;20656;-85
2022/10/13 06:56:36;;;;;;;20.27;18.37;;;11.40;99.90;;;;;;5041963;28;20638;-84
2022/10/13 06:59:03;;;;;;;19.27;17.67;;;11.70;99.90;;;;;;5042433;28;20629;-85
2022/10/13 07:01:30;;;;;;;17.37;15.77;;;11.70;99.90;;;;;;5042303;28;20630;-85
2022/10/13 07:03:57;;;;;;;21.77;18.07;;;11.60;99.90;;;;;;5041687;28;21103;-85
2022/10/13 07:06:24;;;;;;;21.23;17.67;;;12.00;99.90;;;;;;5041595;28;20646;-85
2022/10/13 07:08:51;;;;;;;21.00;19.00;;;11.50;99.90;;;;;;5042715;28;20672;-86
2022/10/13 07:11:18;;;;;;;21.37;18.13;;;11.70;99.90;;;;;;5042405;28;20626;-86
2022/10/13 07:13:46;;;;;;;20.13;18.00;;;11.60;99.90;;;;;;5040509;28;20640;-86
2022/10/13 07:16:14;;;;;;;22.00;16.43;;;12.10;99.90;;;;;;5044434;28;20645;-84
2022/10/13 07:18:41;;;;;;;22.00;17.77;;;12.10;99.90;;;;;;5040243;28;20657;-85
2022/10/13 07:21:09;;;;;;;19.53;17.50;;;12.10;99.90;;;;;;5043286;28;20635;-85
2022/10/13 07:23:36;;;;;;;18.77;16.97;;;12.00;99.90;;;;;;5039407;28;20644;-85
2022/10/13 07:26:07;;;;;;;19.73;17.93;;;12.30;99.90;;;;;;5042373;28;20646;-85
2022/10/13 07:28:34;;;;;;;20.10;18.00;;;12.30;99.90;;;;;;5042888;28;20625;-85
2022/10/13 07:31:08;;;;;;;20.40;16.77;;;11.90;99.90;;;;;;5045589;28;20626;-85
2022/10/13 07:33:35;;;;;;;20.93;18.27;;;12.20;99.90;;;;;;5042438;28;21473;-85
2022/10/13 07:36:02;;;;;;;18.33;16.50;;;12.60;99.90;;;;;;5042665;28;20654;-85
2022/10/13 07:38:29;;;;;;;19.73;17.80;;;12.10;99.90;;;;;;5038476;28;21172;-85
2022/10/13 07:40:55;;;;;;;19.00;17.27;;;12.20;99.90;;;;;;5047851;28;21091;-85
2022/10/13 07:43:22;;;;;;;19.13;17.13;;;12.40;99.90;;;;;;5047593;28;20625;-85
2022/10/13 07:45:49;;;;;;;22.10;19.67;;;12.70;99.90;;;;;;5043567;28;20681;-85
2022/10/13 07:48:17;;;;;;;27.00;19.23;;;12.30;99.90;;;;;;5047947;28;20593;-85
2022/10/13 07:50:45;;;;;;;21.63;19.40;;;12.80;99.90;;;;;;5045083;28;21237;-86
2022/10/13 07:53:11;;;;;;;22.03;19.47;;;12.90;99.90;;;;;;5043159;28;20771;-86
2022/10/13 07:55:38;;;;;;;22.23;18.70;;;12.80;99.90;;;;;;5047513;28;20666;-86
2022/10/13 07:58:05;;;;;;;17.53;15.70;;;13.10;99.90;;;;;;5049205;28;20621;-86
2022/10/13 08:00:33;;;;;;;18.53;16.77;;;13.10;99.90;;;;;;5044562;28;20696;-87
2022/10/13 08:03:00;;;;;;;17.67;15.83;;;13.10;99.90;;;;;;5049349;28;20997;-87
2022/10/13 08:05:28;;;;;;;16.60;14.90;;;12.80;99.90;;;;;;5046394;28;20645;-87
2022/10/13 08:07:55;;;;;;;17.50;14.60;;;13.30;99.90;;;;;;5047460;28;20622;-87
2022/10/13 08:10:21;;;;;;;45.53;35.67;;;13.30;99.90;;;;;;5045966;28;20696;-88
2022/10/13 08:12:48;;;;;;;19.13;14.80;;;13.60;99.90;;;;;;5060093;28;20644;-86
2022/10/13 08:15:15;;;;;;;14.67;13.13;;;13.90;99.90;;;;;;5055015;28;20618;-87
2022/10/13 08:17:42;;;;;;;16.50;13.17;;;14.40;99.90;;;;;;5048145;28;20629;-86
2022/10/13 08:20:09;;;;;;;12.93;11.63;;;14.00;99.90;;;;;;5050779;28;20713;-87
2022/10/13 08:22:38;;;;;;;14.60;13.10;;;13.80;99.90;;;;;;5048842;28;21061;-87
2022/10/13 08:25:06;;;;;;;17.73;13.17;;;13.90;99.90;;;;;;5047834;28;20693;-85
2022/10/13 08:27:33;;;;;;;15.70;12.00;;;13.90;99.90;;;;;;5044642;28;20703;-86
2022/10/13 08:29:59;;;;;;;16.60;13.27;;;13.90;99.90;;;;;;5045773;28;20662;-88
2022/10/13 08:32:26;;;;;;;12.80;11.70;;;13.60;99.90;;;;;;5039323;28;20713;-86
2022/10/13 08:34:53;;;;;;;17.17;12.40;;;14.00;99.90;;;;;;5046246;28;20632;-85
2022/10/13 08:37:20;;;;;;;14.23;12.60;;;13.60;99.90;;;;;;5044267;28;20660;-88
2022/10/13 08:39:55;;;;;;;13.20;11.80;;;13.70;99.90;;;;;;5043836;28;20625;-86
2022/10/13 08:42:22;;;;;;;13.10;11.70;;;13.80;99.90;;;;;;5047957;28;21181;-87
2022/10/13 08:44:52;;;;;;;14.77;12.77;;;13.90;99.90;;;;;;5049047;28;20661;-86
2022/10/13 08:47:29;;;;;;;12.27;11.13;;;13.90;99.90;;;;;;5045449;28;20645;-86
2022/10/13 08:49:57;;;;;;;13.83;11.60;;;14.30;99.90;;;;;;5044623;28;20817;-86
2022/10/13 08:52:29;;;;;;;12.17;11.00;;;14.60;99.90;;;;;;5042736;28;20633;-86
2022/10/13 08:54:57;;;;;;;13.50;12.10;;;14.40;99.90;;;;;;5045416;28;20622;-86
2022/10/13 08:57:24;;;;;;;17.33;12.03;;;13.80;99.90;;;;;;5043655;28;20654;-85
2022/10/13 08:59:52;;;;;;;14.63;13.17;;;14.10;99.90;;;;;;5046229;28;20742;-85
2022/10/13 09:02:24;;;;;;;12.50;11.40;;;14.30;99.90;;;;;;5045038;28;20749;-85
2022/10/13 09:04:53;;;;;;;13.37;11.00;;;14.10;99.90;;;;;;5044774;28;20660;-85
2022/10/13 09:07:22;;;;;;;12.77;11.47;;;14.20;99.90;;;;;;5043575;28;20663;-86
2022/10/13 09:09:50;;;;;;;14.03;11.53;;;14.30;99.90;;;;;;5041424;28;20665;-86
2022/10/13 09:12:20;;;;;;;12.70;11.50;;;14.50;99.90;;;;;;5044902;28;20629;-86
2022/10/13 09:14:58;;;;;;;15.03;11.53;;;14.30;99.90;;;;;;5043956;28;21072;-86
2022/10/13 09:17:26;;;;;;;12.60;11.40;;;14.50;99.90;;;;;;5045122;28;20691;-86
2022/10/13 09:19:59;;;;;;;12.30;11.03;;;15.10;99.90;;;;;;5043124;28;20638;-86
2022/10/13 09:22:28;;;;;;;12.70;11.40;;;15.10;99.90;;;;;;5042380;28;21038;-86
2022/10/13 09:25:17;;;;;;;12.53;11.17;;;15.20;99.90;;;;;;5039083;28;21005;-86
2022/10/13 09:27:48;;;;;;;11.77;10.80;;;14.50;99.90;;;;;;5044694;28;20638;-86
2022/10/13 09:30:28;;;;;;;12.27;11.07;;;14.60;99.90;;;;;;5043742;28;20676;-85
2022/10/13 09:33:12;;;;;;;13.10;11.80;;;14.80;99.90;;;;;;5042882;28;20633;-85
2022/10/13 09:35:42;;;;;;;15.13;11.17;;;15.10;99.90;;;;;;5045174;28;20680;-86
2022/10/13 09:38:15;;;;;;;11.80;10.67;;;15.30;99.90;;;;;;5043473;28;20720;-86
2022/10/13 09:40:42;;;;;;;16.33;10.50;;;15.40;99.90;;;;;;5042209;28;20587;-85
2022/10/13 09:43:25;;;;;;;10.83;9.77;;;15.60;99.90;;;;;;5037879;28;20986;-86
2022/10/13 09:45:53;;;;;;;10.53;9.53;;;15.50;99.90;;;;;;5043614;28;20661;-86
2022/10/13 09:48:23;;;;;;;11.30;10.13;;;15.50;99.90;;;;;;5044850;28;20632;-86
2022/10/13 09:50:53;;;;;;;13.93;11.13;;;15.40;99.90;;;;;;5042735;28;20666;-87
2022/10/13 09:53:24;;;;;;;11.00;9.90;;;15.70;99.90;;;;;;5044445;28;21204;-86
2022/10/13 09:56:08;;;;;;;11.50;9.17;;;16.10;99.90;;;;;;5044242;28;20649;-86
2022/10/13 09:58:42;;;;;;;15.63;10.20;;;16.20;99.90;;;;;;5045697;28;21178;-86
2022/10/13 10:01:20;;;;;;;12.90;10.30;;;15.70;99.90;;;;;;5046072;28;20625;-86
2022/10/13 10:03:49;;;;;;;10.57;9.30;;;15.40;99.90;;;;;;5043660;28;20642;-86
2022/10/13 10:06:17;;;;;;;10.20;9.40;;;15.60;99.90;;;;;;5043828;28;20658;-86
2022/10/13 10:08:50;;;;;;;13.03;9.80;;;16.00;99.90;;;;;;5044084;28;20715;-86
2022/10/13 10:11:19;;;;;;;9.40;8.40;;;16.20;99.90;;;;;;5043447;28;20670;-86
2022/10/13 10:13:47;;;;;;;9.60;8.47;;;16.00;99.90;;;;;;5043962;28;20987;-86
2022/10/13 10:16:28;;;;;;;11.90;9.03;;;16.50;99.90;;;;;;5040855;28;21223;-86
2022/10/13 10:19:00;;;;;;;8.83;7.70;;;16.70;99.90;;;;;;5045287;28;20739;-85
2022/10/13 10:21:33;;;;;;;14.23;8.93;;;16.00;99.90;;;;;;5042796;28;20622;-86
2022/10/13 10:24:07;;;;;;;10.80;9.80;;;16.00;99.90;;;;;;5036495;28;20633;-86
2022/10/13 10:26:45;;;;;;;14.00;6.83;;;16.40;99.90;;;;;;5040877;28;20668;-86
2022/10/13 10:29:32;;;;;;;10.43;9.20;;;16.50;99.90;;;;;;5040207;28;20724;-86
2022/10/13 10:32:12;;;;;;;10.50;8.80;;;16.00;99.90;;;;;;5043415;28;20638;-85
2022/10/13 10:34:45;;;;;;;9.83;8.93;;;15.50;99.90;;;;;;5041120;28;20621;-86
2022/10/13 10:37:25;;;;;;;13.40;9.07;;;15.80;99.90;;;;;;5043538;28;20649;-86
2022/10/13 10:40:02;;;;;;;9.90;8.33;;;16.00;99.90;;;;;;5044523;28;20708;-86
2022/10/13 10:42:46;;;;;;;8.93;8.03;;;16.20;99.90;;;;;;5041562;28;21007;-86
2022/10/13 10:45:17;;;;;;;10.00;9.10;;;16.30;99.90;;;;;;5039479;28;20622;-86
2022/10/13 10:47:47;;;;;;;9.33;8.43;;;16.40;99.90;;;;;;5040586;28;20647;-86
2022/10/13 10:50:17;;;;;;;12.13;10.07;;;16.50;99.90;;;;;;5043267;28;20757;-86
2022/10/13 10:52:52;;;;;;;8.77;8.00;;;16.10;99.90;;;;;;5035642;28;20689;-86
2022/10/13 10:55:23;;;;;;;10.37;8.77;;;16.00;99.90;;;;;;5037467;28;20641;-86
2022/10/13 10:58:00;;;;;;;13.00;9.33;;;15.80;99.90;;;;;;5041098;28;21148;-86
2022/10/13 11:00:28;;;;;;;9.03;8.20;;;16.20;99.90;;;;;;5043291;28;20606;-86
2022/10/13 11:03:02;;;;;;;10.93;7.63;;;16.40;99.90;;;;;;5040500;28;20861;-86
2022/10/13 11:05:46;;;;;;;9.33;7.00;;;16.40;99.90;;;;;;5040032;28;21171;-85
2022/10/13 11:08:29;;;;;;;11.40;8.07;;;16.50;99.90;;;;;;5040776;28;20952;-86
2022/10/13 11:11:45;;;;;;;11.00;8.37;;;16.00;99.90;;;;;;5043206;28;20646;-87
2022/10/13 11:14:28;;;;;;;13.83;6.83;;;16.10;99.90;;;;;;5043763;28;20626;-85
2022/10/13 11:17:17;;;;;;;11.40;7.43;;;16.90;99.90;;;;;;5047911;28;20664;-86
2022/10/13 11:19:48;;;;;;;12.17;7.30;;;16.80;99.90;;;;;;5043015;28;20631;-86
2022/10/13 11:22:21;;;;;;;7.80;7.10;;;17.20;99.90;;;;;;5046726;28;20625;-86
2022/10/13 11:24:54;;;;;;;8.10;7.30;;;17.10;99.90;;;;;;5044318;28;21143;-87
2022/10/13 11:27:47;;;;;;;6.97;5.60;;;16.90;99.90;;;;;;5047217;28;20657;-87
2022/10/13 11:30:46;;;;;;;9.80;7.27;;;17.10;99.90;;;;;;5041818;28;20753;-86
2022/10/13 11:33:33;;;;;;;8.33;7.03;;;17.00;99.90;;;;;;5042414;28;21079;-86
2022/10/13 11:36:44;;;;;;;7.17;4.50;;;17.00;99.90;;;;;;5043987;28;20645;-86
2022/10/13 11:39:51;;;;;;;8.60;6.40;;;16.80;99.90;;;;;;5049026;28;20748;-86
2022/10/13 11:42:36;;;;;;;8.87;6.87;;;16.70;99.90;;;;;;5046967;28;20626;-86
2022/10/13 11:45:13;;;;;;;7.60;6.90;;;17.20;99.90;;;;;;5044432;28;20630;-87
2022/10/13 11:48:08;;;;;;;9.47;7.73;;;17.10;99.90;;;;;;5046986;28;20629;-86
2022/10/13 11:50:43;;;;;;;8.57;7.00;;;17.10;99.90;;;;;;5028853;28;20657;-86
2022/10/13 11:53:17;;;;;;;11.20;6.40;;;17.00;99.90;;;;;;5044903;28;20626;-87
2022/10/13 11:55:50;;;;;;;9.10;6.93;;;17.00;99.90;;;;;;5043935;28;20657;-86
2022/10/13 11:58:18;;;;;;;8.20;5.93;;;17.10;99.90;;;;;;5042670;28;20691;-86
2022/10/13 12:00:57;;;;;;;9.10;5.93;;;17.10;99.90;;;;;;5044572;28;20617;-86
2022/10/13 12:03:28;;;;;;;8.10;7.00;;;17.10;99.90;;;;;;5042997;28;20987;-86
2022/10/13 12:06:00;;;;;;;9.43;8.53;;;16.90;99.90;;;;;;5042663;28;21116;-86
2022/10/13 12:08:29;;;;;;;7.00;4.70;;;17.10;99.90;;;;;;5043486;28;20632;-85
2022/10/13 12:10:58;;;;;;;8.83;6.60;;;17.50;99.90;;;;;;5042870;28;20653;-86
2022/10/13 12:13:27;;;;;;;6.30;5.70;;;17.50;99.90;;;;;;5049194;28;20627;-85
2022/10/13 12:15:59;;;;;;;6.93;6.23;;;16.90;99.90;;;;;;5049354;28;20645;-85
2022/10/13 12:18:28;;;;;;;9.30;6.80;;;16.70;99.90;;;;;;5045565;28;20621;-86
2022/10/13 12:20:58;;;;;;;8.37;6.57;;;16.80;99.90;;;;;;5044592;28;20665;-86
2022/10/13 12:23:26;;;;;;;8.70;6.87;;;17.20;99.90;;;;;;5047625;28;20798;-86
2022/10/13 12:25:57;;;;;;;8.13;6.60;;;17.50;99.90;;;;;;5044480;28;20653;-87
2022/10/13 12:28:26;;;;;;;11.17;6.87;;;18.00;99.90;;;;;;5044257;28;20674;-87
2022/10/13 12:30:54;;;;;;;8.20;5.20;;;18.20;99.90;;;;;;5036154;28;20661;-87
2022/10/13 12:33:27;;;;;;;10.80;5.47;;;17.90;99.90;;;;;;5041362;28;21405;-86
2022/10/13 12:35:54;;;;;;;7.50;6.17;;;18.70;99.90;;;;;;5045919;28;20653;-86
2022/10/13 12:38:23;;;;;;;8.73;5.80;;;18.90;99.90;;;;;;5045968;28;20656;-88
2022/10/13 12:40:53;;;;;;;6.57;5.60;;;20.20;99.90;;;;;;5045277;28;20625;-86
2022/10/13 12:43:25;;;;;;;5.80;5.30;;;20.70;99.90;;;;;;5045054;28;21238;-86
2022/10/13 12:45:52;;;;;;;7.67;5.93;;;21.10;99.90;;;;;;5047124;28;20726;-87
2022/10/13 12:48:33;;;;;;;7.07;5.30;;;20.70;99.90;;;;;;5043391;28;21191;-87